createdAt,value
2023-01-22T00:00:47.665Z,0.08
2023-01-22T00:01:49.581Z,0.09
2023-01-22T00:02:52.566Z,0.09
2023-01-22T00:03:54.886Z,0.07
2023-01-22T00:04:57.905Z,0.08
2023-01-22T00:06:01.238Z,0.05
2023-01-22T00:07:04.823Z,0.08
2023-01-22T00:08:06.785Z,0.08
2023-01-22T00:09:09.595Z,0.08
2023-01-22T00:10:11.955Z,0.07
2023-01-22T00:11:15.778Z,0.08
2023-01-22T00:12:17.686Z,0.07
2023-01-22T00:13:21.430Z,0.07
2023-01-22T00:14:23.388Z,0.07
2023-01-22T00:15:26.287Z,0.09
2023-01-22T00:16:28.199Z,0.09
2023-01-22T00:17:31.536Z,0.09
2023-01-22T00:18:33.392Z,0.09
2023-01-22T00:19:36.267Z,0.09
2023-01-22T00:20:39.318Z,0.09
2023-01-22T00:21:45.064Z,0.10
2023-01-22T00:22:46.993Z,0.10
2023-01-22T00:23:50.243Z,0.10
2023-01-22T00:24:52.147Z,0.10
2023-01-22T00:26:02.065Z,0.09
2023-01-22T00:27:04.088Z,0.10
2023-01-22T00:28:07.101Z,0.10
2023-01-22T00:29:09.197Z,0.10
2023-01-22T00:30:13.082Z,0.11
2023-01-22T00:31:16.750Z,0.09
2023-01-22T00:32:19.794Z,0.10
2023-01-22T00:33:21.789Z,0.10
2023-01-22T00:34:24.654Z,0.11
2023-01-22T00:35:26.547Z,0.10
2023-01-22T00:36:29.443Z,0.11
2023-01-22T00:37:32.719Z,0.12
2023-01-22T00:38:36.032Z,0.10
2023-01-22T00:39:37.947Z,0.11
2023-01-22T00:40:40.856Z,0.10
2023-01-22T00:41:43.855Z,0.10
2023-01-22T00:42:45.715Z,0.10
2023-01-22T00:43:51.094Z,0.11
2023-01-22T00:44:54.471Z,0.10
2023-01-22T00:45:57.742Z,0.11
2023-01-22T00:47:01.095Z,0.11
2023-01-22T00:48:04.160Z,0.11
2023-01-22T00:49:06.012Z,0.11
2023-01-22T00:50:10.448Z,0.11
2023-01-22T00:51:13.269Z,0.11
2023-01-22T00:52:16.239Z,0.11
2023-01-22T00:53:19.613Z,0.12
2023-01-22T00:54:22.551Z,0.11
2023-01-22T00:55:24.427Z,0.11
2023-01-22T00:56:28.266Z,0.11
2023-01-22T00:57:30.286Z,0.11
2023-01-22T00:58:35.614Z,0.11
2023-01-22T00:59:38.670Z,0.10
2023-01-22T01:00:40.677Z,0.11
2023-01-22T01:01:43.556Z,0.12
2023-01-22T01:03:00.301Z,0.11
2023-01-22T01:04:03.161Z,0.12
2023-01-22T01:05:07.876Z,0.11
2023-01-22T01:06:15.502Z,0.11
2023-01-22T01:07:17.466Z,0.13
2023-01-22T01:08:21.889Z,0.19
2023-01-22T01:09:24.866Z,0.21
2023-01-22T01:10:27.406Z,0.22
2023-01-22T01:11:30.818Z,0.20
2023-01-22T01:12:32.750Z,0.21
2023-01-22T01:13:38.446Z,0.22
2023-01-22T01:14:40.459Z,0.22
2023-01-22T01:15:43.446Z,0.23
2023-01-22T01:16:45.387Z,0.22
2023-01-22T01:17:48.346Z,0.22
2023-01-22T01:18:51.516Z,0.22
2023-01-22T01:19:53.521Z,0.20
2023-01-22T01:20:57.164Z,0.21
2023-01-22T01:22:00.837Z,0.22
2023-01-22T01:23:03.750Z,0.21
2023-01-22T01:24:07.417Z,0.22
2023-01-22T01:25:10.315Z,0.22
2023-01-22T01:26:14.310Z,0.23
2023-01-22T01:27:17.240Z,0.24
2023-01-22T01:28:19.775Z,0.23
2023-01-22T01:29:24.580Z,0.21
2023-01-22T01:30:26.542Z,0.12
2023-01-22T01:31:29.603Z,0.11
2023-01-22T01:32:32.327Z,0.12
2023-01-22T01:33:37.140Z,0.10
2023-01-22T01:34:39.148Z,0.11
2023-01-22T01:35:42.282Z,0.12
2023-01-22T01:36:49.539Z,0.10
2023-01-22T01:37:52.295Z,0.10
2023-01-22T01:38:56.659Z,0.11
2023-01-22T01:39:59.976Z,0.11
2023-01-22T01:41:03.710Z,0.11
2023-01-22T01:42:05.727Z,0.11
2023-01-22T01:43:15.376Z,0.11
2023-01-22T01:44:19.894Z,0.11
2023-01-22T01:45:25.351Z,0.12
2023-01-22T01:46:28.319Z,0.11
2023-01-22T01:47:35.741Z,0.11
2023-01-22T01:48:42.529Z,0.11
2023-01-22T01:49:49.152Z,0.11
2023-01-22T01:51:00.691Z,0.11
2023-01-22T01:52:06.762Z,0.12
2023-01-22T01:53:10.124Z,0.11
2023-01-22T01:54:12.884Z,0.11
2023-01-22T01:55:22.844Z,0.11
2023-01-22T01:56:30.184Z,0.11
2023-01-22T01:57:36.140Z,0.10
2023-01-22T01:58:41.056Z,0.11
2023-01-22T01:59:43.297Z,0.12
2023-01-22T02:00:48.065Z,0.12
2023-01-22T02:01:53.846Z,0.11
2023-01-22T02:02:57.563Z,0.11
2023-01-22T02:04:01.028Z,0.11
2023-01-22T02:05:05.321Z,0.11
2023-01-22T02:06:10.383Z,0.11
2023-01-22T02:07:13.334Z,0.11
2023-01-22T02:08:15.382Z,0.11
2023-01-22T02:09:18.375Z,0.11
2023-01-22T02:10:21.816Z,0.11
2023-01-22T02:11:26.176Z,0.10
2023-01-22T02:12:28.115Z,0.11
2023-01-22T02:13:35.043Z,0.11
2023-01-22T02:14:40.470Z,0.11
2023-01-22T02:15:43.689Z,0.11
2023-01-22T02:16:45.848Z,0.12
2023-01-22T02:17:49.231Z,0.11
2023-01-22T02:18:51.236Z,0.12
2023-01-22T02:19:56.279Z,0.11
2023-01-22T02:21:01.131Z,0.12
2023-01-22T02:22:04.129Z,0.10
2023-01-22T02:23:07.724Z,0.11
2023-01-22T02:25:40.226Z,0.11
2023-01-22T02:26:43.773Z,0.12
2023-01-22T02:27:46.652Z,0.11
2023-01-22T02:28:48.699Z,0.11
2023-01-22T02:29:52.503Z,0.11
2023-01-22T02:30:54.472Z,0.11
2023-01-22T02:31:57.420Z,0.10
2023-01-22T02:32:59.369Z,0.10
2023-01-22T02:34:02.920Z,0.10
2023-01-22T02:35:06.855Z,0.09
2023-01-22T02:36:10.081Z,0.10
2023-01-22T02:37:12.051Z,0.10
2023-01-22T02:38:15.094Z,0.09
2023-01-22T02:39:17.019Z,0.09
2023-01-22T02:40:20.425Z,0.09
2023-01-22T02:41:24.702Z,0.09
2023-01-22T02:42:28.147Z,0.10
2023-01-22T02:43:30.379Z,0.08
2023-01-22T02:44:34.384Z,0.09
2023-01-22T02:45:36.340Z,0.09
2023-01-22T02:46:39.383Z,0.09
2023-01-22T02:47:41.385Z,0.10
2023-01-22T02:48:44.358Z,0.10
2023-01-22T02:49:46.292Z,0.10
2023-01-22T02:50:49.196Z,0.09
2023-01-22T02:51:51.197Z,0.09
2023-01-22T02:52:55.216Z,0.09
2023-01-22T02:53:57.369Z,0.09
2023-01-22T02:55:00.586Z,0.10
2023-01-22T02:56:06.436Z,0.08
2023-01-22T02:57:10.989Z,0.10
2023-01-22T02:58:13.215Z,0.09
2023-01-22T02:59:16.136Z,0.09
2023-01-22T03:00:18.915Z,0.08
2023-01-22T03:01:24.477Z,0.08
2023-01-22T03:02:28.662Z,0.08
2023-01-22T03:03:31.614Z,0.07
2023-01-22T03:04:33.503Z,0.07
2023-01-22T03:05:36.381Z,0.04
2023-01-22T03:06:42.831Z,0.10
2023-01-22T03:07:45.257Z,0.11
2023-01-22T03:08:48.552Z,0.09
2023-01-22T03:09:50.514Z,0.10
2023-01-22T03:10:59.127Z,0.09
2023-01-22T03:12:03.147Z,0.09
2023-01-22T03:13:28.340Z,0.06
2023-01-22T03:14:49.240Z,0.05
2023-01-22T03:16:11.319Z,0.08
2023-01-22T03:17:31.721Z,0.09
2023-01-22T03:18:53.529Z,0.10
2023-01-22T03:20:14.186Z,0.09
2023-01-22T03:21:18.706Z,0.09
2023-01-22T03:22:20.705Z,0.10
2023-01-22T03:23:27.610Z,0.07
2023-01-22T03:24:29.680Z,0.06
2023-01-22T03:25:32.560Z,0.06
2023-01-22T03:26:36.383Z,0.06
2023-01-22T03:27:59.426Z,0.06
2023-01-22T03:29:02.907Z,0.06
2023-01-22T03:30:06.410Z,0.07
2023-01-22T03:31:10.586Z,0.08
2023-01-22T03:32:14.007Z,0.07
2023-01-22T03:33:16.262Z,0.08
2023-01-22T03:34:21.291Z,0.09
2023-01-22T03:35:23.357Z,0.09
2023-01-22T03:36:40.345Z,0.09
2023-01-22T03:37:42.237Z,0.09
2023-01-22T03:38:45.490Z,0.10
2023-01-22T03:39:51.376Z,0.09
2023-01-22T03:41:06.564Z,0.09
2023-01-22T03:42:08.648Z,0.09
2023-01-22T03:43:11.617Z,0.09
2023-01-22T03:44:14.945Z,0.08
2023-01-22T03:45:18.954Z,0.08
2023-01-22T03:46:20.887Z,0.08
2023-01-22T03:47:30.091Z,0.07
2023-01-22T03:48:32.570Z,0.06
2023-01-22T03:49:35.569Z,0.06
2023-01-22T03:50:40.016Z,0.06
2023-01-22T03:51:43.586Z,0.07
2023-01-22T03:52:45.484Z,0.08
2023-01-22T03:53:48.823Z,0.08
2023-01-22T03:54:50.979Z,0.08
2023-01-22T03:56:01.319Z,0.06
2023-01-22T03:57:05.857Z,0.08
2023-01-22T03:58:12.570Z,0.07
2023-01-22T03:59:15.906Z,0.08
2023-01-22T04:00:20.462Z,0.07
2023-01-22T04:01:27.562Z,0.07
2023-01-22T04:02:32.198Z,0.06
2023-01-22T04:03:48.072Z,0.06
2023-01-22T04:04:50.470Z,0.05
2023-01-22T04:05:53.523Z,0.06
2023-01-22T04:06:55.412Z,0.06
2023-01-22T04:07:58.960Z,0.06
2023-01-22T04:09:04.227Z,0.06
2023-01-22T04:10:13.336Z,0.06
2023-01-22T04:11:18.428Z,0.06
2023-01-22T04:12:20.412Z,0.06
2023-01-22T04:13:23.499Z,0.05
2023-01-22T04:14:28.865Z,0.05
2023-01-22T04:15:33.589Z,0.05
2023-01-22T04:16:41.605Z,0.05
2023-01-22T04:18:05.667Z,0.05
2023-01-22T04:19:17.606Z,0.06
2023-01-22T04:20:37.823Z,0.05
2023-01-22T04:22:05.997Z,0.05
2023-01-22T04:23:09.583Z,0.05
2023-01-22T04:24:12.445Z,0.04
2023-01-22T04:25:14.505Z,0.05
2023-01-22T04:26:19.388Z,0.05
2023-01-22T04:27:21.376Z,0.06
2023-01-22T04:28:26.873Z,0.04
2023-01-22T04:29:31.641Z,0.04
2023-01-22T04:30:34.666Z,0.04
2023-01-22T04:31:55.005Z,0.04
2023-01-22T04:33:15.398Z,0.03
2023-01-22T04:34:36.486Z,0.03
2023-01-22T04:35:56.566Z,0.03
2023-01-22T04:36:59.983Z,0.03
2023-01-22T04:38:07.744Z,0.03
2023-01-22T04:39:10.685Z,0.03
2023-01-22T04:40:13.356Z,0.03
2023-01-22T04:41:16.402Z,0.02
2023-01-22T04:42:18.621Z,0.03
2023-01-22T04:43:21.483Z,0.01
2023-01-22T04:44:23.393Z,0.01
2023-01-22T04:45:27.598Z,0.02
2023-01-22T04:46:31.605Z,0.01
2023-01-22T04:47:35.012Z,0.01
2023-01-22T04:48:36.945Z,0.01
2023-01-22T04:49:39.996Z,0.02
2023-01-22T04:50:46.745Z,0.02
2023-01-22T04:51:49.728Z,0.02
2023-01-22T04:52:53.136Z,0.01
2023-01-22T04:53:56.394Z,0.01
2023-01-22T04:54:58.406Z,0.02
2023-01-22T04:56:08.122Z,0.02
2023-01-22T04:57:10.132Z,0.02
2023-01-22T04:58:13.224Z,0.03
2023-01-22T04:59:15.880Z,0.02
2023-01-22T05:00:20.388Z,0.01
2023-01-22T05:01:23.848Z,0.01
2023-01-22T05:02:26.817Z,0.01
2023-01-22T05:03:28.963Z,0.01
2023-01-22T05:04:32.695Z,0.00
2023-01-22T05:05:34.652Z,0.00
2023-01-22T05:06:38.665Z,0.00
2023-01-22T05:07:40.650Z,-0.01
2023-01-22T05:08:43.934Z,0.00
2023-01-22T05:09:46.242Z,0.00
2023-01-22T05:10:49.228Z,0.00
2023-01-22T05:12:01.042Z,0.00
2023-01-22T05:13:09.207Z,0.00
2023-01-22T05:14:13.832Z,0.01
2023-01-22T05:15:24.034Z,0.00
2023-01-22T05:16:30.417Z,0.00
2023-01-22T05:17:33.409Z,-0.01
2023-01-22T05:18:35.302Z,-0.01
2023-01-22T05:19:38.400Z,0.01
2023-01-22T05:20:44.752Z,0.00
2023-01-22T05:21:48.167Z,0.00
2023-01-22T05:22:53.706Z,0.00
2023-01-22T05:23:59.455Z,-0.01
2023-01-22T05:25:05.108Z,-0.01
2023-01-22T05:26:07.416Z,-0.01
2023-01-22T05:27:31.794Z,-0.02
2023-01-22T05:28:41.765Z,-0.02
2023-01-22T05:29:55.487Z,-0.02
2023-01-22T05:31:21.286Z,-0.01
2023-01-22T05:32:32.960Z,-0.02
2023-01-22T05:33:37.147Z,-0.01
2023-01-22T05:34:41.204Z,-0.02
2023-01-22T05:35:45.666Z,-0.02
2023-01-22T05:36:49.440Z,-0.03
2023-01-22T05:37:57.078Z,-0.03
2023-01-22T05:38:59.548Z,-0.03
2023-01-22T05:40:05.437Z,-0.03
2023-01-22T05:41:10.084Z,-0.04
2023-01-22T05:42:16.325Z,-0.04
2023-01-22T05:43:21.468Z,-0.05
2023-01-22T05:44:31.324Z,-0.04
2023-01-22T05:45:35.501Z,-0.05
2023-01-22T05:47:07.574Z,-0.04
2023-01-22T05:48:26.361Z,-0.05
2023-01-22T05:49:41.183Z,-0.06
2023-01-22T05:50:46.990Z,-0.06
2023-01-22T05:51:48.987Z,-0.06
2023-01-22T05:52:55.718Z,-0.07
2023-01-22T05:53:57.869Z,-0.08
2023-01-22T05:55:04.749Z,-0.08
2023-01-22T05:56:13.511Z,-0.08
2023-01-22T05:57:16.658Z,-0.08
2023-01-22T05:58:18.751Z,-0.08
2023-01-22T05:59:23.632Z,-0.09
2023-01-22T06:00:37.661Z,-0.08
2023-01-22T06:01:46.567Z,-0.09
2023-01-22T06:02:49.103Z,-0.09
2023-01-22T06:03:53.848Z,-0.09
2023-01-22T06:04:58.894Z,-0.10
2023-01-22T06:06:04.926Z,-0.10
2023-01-22T06:07:07.478Z,-0.10
2023-01-22T06:08:11.008Z,-0.09
2023-01-22T06:09:22.984Z,-0.10
2023-01-22T06:10:26.303Z,-0.10
2023-01-22T06:11:28.562Z,-0.12
2023-01-22T06:12:31.597Z,-0.12
2023-01-22T06:13:34.622Z,-0.12
2023-01-22T06:14:45.267Z,-0.12
2023-01-22T06:15:48.024Z,-0.12
2023-01-22T06:17:06.333Z,-0.12
2023-01-22T06:18:11.019Z,-0.13
2023-01-22T06:19:15.969Z,-0.12
2023-01-22T06:20:22.627Z,-0.14
2023-01-22T06:21:25.485Z,-0.14
2023-01-22T06:22:28.237Z,-0.14
2023-01-22T06:23:35.604Z,-0.14
2023-01-22T06:24:37.893Z,-0.13
2023-01-22T06:25:42.616Z,-0.14
2023-01-22T06:26:51.933Z,-0.15
2023-01-22T06:27:55.445Z,-0.15
2023-01-22T06:28:58.739Z,-0.15
2023-01-22T06:30:01.175Z,-0.15
2023-01-22T06:31:07.506Z,-0.15
2023-01-22T06:32:11.276Z,-0.15
2023-01-22T06:33:14.216Z,-0.15
2023-01-22T06:34:17.607Z,-0.15
2023-01-22T06:35:20.735Z,-0.16
2023-01-22T06:36:22.815Z,-0.15
2023-01-22T06:37:25.770Z,-0.16
2023-01-22T06:38:28.188Z,-0.15
2023-01-22T06:39:34.092Z,-0.16
2023-01-22T06:40:43.126Z,-0.15
2023-01-22T06:41:47.948Z,-0.15
2023-01-22T06:42:52.793Z,-0.15
2023-01-22T06:43:55.782Z,-0.15
2023-01-22T06:44:57.766Z,-0.16
2023-01-22T06:46:04.559Z,-0.15
2023-01-22T06:47:36.005Z,-0.15
2023-01-22T06:48:38.310Z,-0.14
2023-01-22T06:49:42.661Z,-0.15
2023-01-22T06:50:47.960Z,-0.14
2023-01-22T06:51:49.919Z,-0.13
2023-01-22T06:52:54.095Z,-0.14
2023-01-22T06:53:56.071Z,-0.14
2023-01-22T06:54:58.888Z,-0.14
2023-01-22T06:56:01.869Z,-0.14
2023-01-22T06:57:06.581Z,-0.15
2023-01-22T06:58:12.629Z,-0.13
2023-01-22T06:59:14.535Z,-0.16
2023-01-22T07:00:18.763Z,-0.17
2023-01-22T07:01:21.890Z,-0.17
2023-01-22T07:02:23.769Z,-0.14
2023-01-22T07:03:26.722Z,-0.14
2023-01-22T07:04:28.827Z,-0.13
2023-01-22T07:05:33.078Z,-0.13
2023-01-22T07:06:34.950Z,-0.14
2023-01-22T07:07:37.792Z,-0.17
2023-01-22T07:08:41.036Z,-0.18
2023-01-22T07:09:44.025Z,-0.19
2023-01-22T07:10:45.912Z,-0.18
2023-01-22T07:11:48.933Z,-0.17
2023-01-22T07:12:54.825Z,-0.18
2023-01-22T07:13:57.737Z,-0.19
2023-01-22T07:14:59.622Z,-0.18
2023-01-22T07:16:02.975Z,-0.18
2023-01-22T07:17:05.010Z,-0.19
2023-01-22T07:18:07.928Z,-0.19
2023-01-22T07:19:09.836Z,-0.19
2023-01-22T07:20:13.338Z,-0.19
2023-01-22T07:21:16.561Z,-0.18
2023-01-22T07:22:19.512Z,-0.18
2023-01-22T07:23:22.672Z,-0.18
2023-01-22T07:24:25.517Z,-0.18
2023-01-22T07:25:27.943Z,-0.19
2023-01-22T07:26:30.972Z,-0.19
2023-01-22T07:27:34.963Z,-0.19
2023-01-22T07:28:37.885Z,-0.19
2023-01-22T07:29:39.781Z,-0.18
2023-01-22T07:30:43.023Z,-0.19
2023-01-22T07:31:49.521Z,-0.18
2023-01-22T07:32:52.848Z,-0.17
2023-01-22T07:33:55.871Z,-0.18
2023-01-22T07:34:57.725Z,-0.18
2023-01-22T07:36:00.687Z,-0.17
2023-01-22T07:37:04.056Z,-0.18
2023-01-22T07:38:07.478Z,-0.17
2023-01-22T07:39:09.423Z,-0.18
2023-01-22T07:40:14.158Z,-0.18
2023-01-22T07:41:25.427Z,-0.19
2023-01-22T07:42:29.045Z,-0.17
2023-01-22T07:43:32.352Z,-0.18
2023-01-22T07:44:36.988Z,-0.20
2023-01-22T07:45:39.016Z,-0.19
2023-01-22T07:46:42.257Z,-0.18
2023-01-22T07:47:50.528Z,-0.19
2023-01-22T07:48:53.587Z,-0.19
2023-01-22T07:49:55.596Z,-0.19
2023-01-22T07:51:00.659Z,-0.19
2023-01-22T07:52:04.564Z,-0.20
2023-01-22T07:53:07.866Z,-0.20
2023-01-22T07:54:09.788Z,-0.20
2023-01-22T07:55:12.665Z,-0.22
2023-01-22T07:56:14.575Z,-0.23
2023-01-22T07:57:18.664Z,-0.23
2023-01-22T07:58:21.129Z,-0.23
2023-01-22T07:59:24.148Z,-0.12
2023-01-22T08:00:26.337Z,-0.11
2023-01-22T08:01:29.217Z,-0.10
2023-01-22T08:02:31.077Z,0.08
2023-01-22T08:03:34.365Z,0.44
2023-01-22T08:04:36.327Z,0.34
2023-01-22T08:05:40.630Z,0.33
2023-01-22T08:06:42.597Z,0.30
2023-01-22T08:07:46.846Z,0.27
2023-01-22T08:08:49.897Z,0.24
2023-01-22T08:09:52.824Z,0.18
2023-01-22T08:10:58.868Z,0.16
2023-01-22T08:12:01.834Z,0.13
2023-01-22T08:13:03.818Z,0.11
2023-01-22T08:14:06.658Z,0.09
2023-01-22T08:15:10.774Z,0.08
2023-01-22T08:16:12.906Z,0.06
2023-01-22T08:17:15.945Z,0.06
2023-01-22T08:18:19.360Z,0.05
2023-01-22T08:19:23.288Z,0.04
2023-01-22T08:20:26.271Z,0.04
2023-01-22T08:21:28.129Z,0.03
2023-01-22T08:22:30.951Z,0.03
2023-01-22T08:23:34.471Z,0.04
2023-01-22T08:24:37.402Z,0.04
2023-01-22T08:25:39.563Z,0.04
2023-01-22T08:26:45.354Z,0.03
2023-01-22T08:27:47.296Z,0.04
2023-01-22T08:28:50.250Z,0.03
2023-01-22T08:29:52.137Z,0.03
2023-01-22T08:30:58.633Z,0.03
2023-01-22T08:32:01.740Z,0.09
2023-01-22T08:33:03.821Z,0.09
2023-01-22T08:34:06.761Z,0.08
2023-01-22T08:35:09.807Z,0.06
2023-01-22T08:36:12.720Z,0.05
2023-01-22T08:37:14.583Z,0.04
2023-01-22T08:38:17.442Z,0.02
2023-01-22T08:39:20.727Z,0.01
2023-01-22T08:40:23.627Z,0.01
2023-01-22T08:41:26.542Z,0.00
2023-01-22T08:42:28.511Z,-0.02
2023-01-22T08:43:31.401Z,-0.02
2023-01-22T08:44:33.395Z,-0.03
2023-01-22T08:45:36.344Z,-0.02
2023-01-22T08:46:40.279Z,-0.03
2023-01-22T08:47:43.169Z,-0.05
2023-01-22T08:48:45.261Z,-0.05
2023-01-22T08:49:48.314Z,-0.05
2023-01-22T08:50:50.343Z,-0.05
2023-01-22T08:51:54.269Z,-0.05
2023-01-22T08:52:56.323Z,-0.05
2023-01-22T08:53:59.243Z,-0.06
2023-01-22T08:55:02.592Z,-0.05
2023-01-22T08:56:06.067Z,-0.04
2023-01-22T08:57:08.964Z,-0.04
2023-01-22T08:58:10.974Z,-0.04
2023-01-22T08:59:13.845Z,-0.04
2023-01-22T09:00:17.115Z,-0.04
2023-01-22T09:01:21.391Z,-0.03
2023-01-22T09:02:23.492Z,-0.04
2023-01-22T09:03:26.691Z,-0.03
2023-01-22T09:04:30.144Z,-0.03
2023-01-22T09:05:32.053Z,-0.04
2023-01-22T09:06:35.213Z,-0.03
2023-01-22T09:07:37.180Z,-0.03
2023-01-22T09:08:40.141Z,-0.03
2023-01-22T09:09:43.016Z,-0.04
2023-01-22T09:10:46.348Z,-0.03
2023-01-22T09:11:49.233Z,-0.03
2023-01-22T09:12:51.251Z,-0.03
2023-01-22T09:13:56.164Z,-0.04
2023-01-22T09:14:58.017Z,-0.02
2023-01-22T09:16:01.037Z,-0.03
2023-01-22T09:17:03.935Z,-0.03
2023-01-22T09:18:05.905Z,-0.04
2023-01-22T09:19:08.937Z,-0.04
2023-01-22T09:20:12.013Z,-0.04
2023-01-22T09:21:13.878Z,-0.05
2023-01-22T09:22:16.746Z,-0.04
2023-01-22T09:23:18.867Z,-0.04
2023-01-22T09:24:21.793Z,-0.04
2023-01-22T09:25:23.682Z,-0.02
2023-01-22T09:26:28.271Z,-0.03
2023-01-22T09:27:30.155Z,-0.02
2023-01-22T09:28:35.155Z,-0.02
2023-01-22T09:29:39.205Z,-0.02
2023-01-22T09:30:42.851Z,-0.03
2023-01-22T09:31:44.860Z,-0.02
2023-01-22T09:32:47.739Z,-0.01
2023-01-22T09:33:51.247Z,-0.02
2023-01-22T09:34:54.217Z,-0.01
2023-01-22T09:36:06.723Z,-0.01
2023-01-22T09:37:11.757Z,-0.01
2023-01-22T09:38:15.443Z,-0.01
2023-01-22T09:39:18.708Z,-0.01
2023-01-22T09:40:28.173Z,-0.01
2023-01-22T09:41:35.453Z,0.01
2023-01-22T09:42:40.640Z,0.01
2023-01-22T09:43:50.947Z,0.01
2023-01-22T09:44:57.097Z,0.01
2023-01-22T09:46:03.162Z,0.02
2023-01-22T09:47:11.487Z,0.02
2023-01-22T09:48:18.959Z,0.02
2023-01-22T09:49:25.240Z,0.03
2023-01-22T09:50:31.229Z,0.04
2023-01-22T09:51:33.206Z,0.04
2023-01-22T09:52:40.010Z,0.05
2023-01-22T09:53:44.365Z,0.06
2023-01-22T09:54:47.130Z,0.08
2023-01-22T09:55:53.216Z,0.06
2023-01-22T09:57:00.656Z,0.08
2023-01-22T09:58:06.040Z,0.08
2023-01-22T09:59:16.047Z,0.09
2023-01-22T10:00:20.972Z,0.10
2023-01-22T10:01:25.208Z,0.12
2023-01-22T10:02:33.001Z,0.12
2023-01-22T10:03:38.684Z,0.14
2023-01-22T10:04:45.876Z,0.14
2023-01-22T10:05:51.656Z,0.17
2023-01-22T10:06:57.435Z,0.17
2023-01-22T10:08:05.806Z,0.19
2023-01-22T10:09:15.286Z,0.20
2023-01-22T10:10:22.182Z,0.23
2023-01-22T10:11:25.908Z,0.23
2023-01-22T10:12:30.109Z,0.24
2023-01-22T10:13:35.177Z,0.24
2023-01-22T10:14:37.199Z,0.26
2023-01-22T10:15:40.079Z,0.26
2023-01-22T10:16:43.123Z,0.28
2023-01-22T10:17:45.435Z,0.28
2023-01-22T10:18:56.481Z,0.29
2023-01-22T10:20:03.482Z,0.28
2023-01-22T10:21:14.295Z,0.28
2023-01-22T10:22:20.631Z,0.29
2023-01-22T10:23:26.376Z,0.29
2023-01-22T10:24:30.254Z,0.29
2023-01-22T10:25:33.536Z,0.28
2023-01-22T10:26:38.808Z,0.27
2023-01-22T10:27:45.394Z,0.28
2023-01-22T10:28:51.224Z,0.27
2023-01-22T10:29:58.576Z,0.27
2023-01-22T10:31:01.623Z,0.28
2023-01-22T10:32:20.011Z,0.26
2023-01-22T10:33:25.072Z,0.27
2023-01-22T10:34:32.481Z,0.28
2023-01-22T10:35:44.015Z,0.27
2023-01-22T10:36:51.286Z,0.28
2023-01-22T10:37:54.779Z,0.28
2023-01-22T10:39:07.995Z,0.29
2023-01-22T10:40:22.826Z,0.29
2023-01-22T10:41:24.688Z,0.28
2023-01-22T10:42:29.811Z,0.29
2023-01-22T10:43:35.957Z,0.28
2023-01-22T10:44:37.897Z,0.29
2023-01-22T10:45:51.388Z,0.28
2023-01-22T10:46:56.491Z,0.27
2023-01-22T10:48:07.604Z,0.27
2023-01-22T10:49:16.782Z,0.26
2023-01-22T10:50:20.824Z,0.25
2023-01-22T10:51:27.502Z,0.25
2023-01-22T10:52:37.434Z,0.25
2023-01-22T10:53:45.841Z,0.26
2023-01-22T10:54:54.886Z,0.27
2023-01-22T10:56:00.896Z,0.26
2023-01-22T10:57:18.479Z,0.27
2023-01-22T10:58:24.449Z,0.26
2023-01-22T10:59:30.587Z,0.27
2023-01-22T11:00:50.952Z,0.27
2023-01-22T11:01:59.829Z,0.26
2023-01-22T11:03:15.502Z,0.27
2023-01-22T11:04:23.100Z,0.26
2023-01-22T11:05:28.311Z,0.27
2023-01-22T11:06:40.358Z,0.27
2023-01-22T11:07:44.249Z,0.27
2023-01-22T11:08:52.658Z,0.28
2023-01-22T11:10:02.923Z,0.28
2023-01-22T11:11:09.873Z,0.28
2023-01-22T11:12:17.841Z,0.28
2023-01-22T11:13:28.402Z,0.29
2023-01-22T11:14:35.017Z,0.28
2023-01-22T11:15:43.435Z,0.29
2023-01-22T11:16:50.595Z,0.29
2023-01-22T11:17:57.449Z,0.29
2023-01-22T11:19:04.109Z,0.30
2023-01-22T11:20:15.915Z,0.29
2023-01-22T11:21:23.556Z,0.28
2023-01-22T11:22:33.938Z,0.29
2023-01-22T11:23:46.235Z,0.29
2023-01-22T11:24:48.596Z,0.29
2023-01-22T11:26:01.448Z,0.28
2023-01-22T11:27:19.526Z,0.30
2023-01-22T11:28:41.538Z,0.29
2023-01-22T11:30:21.597Z,0.29
2023-01-22T11:31:37.530Z,0.29
2023-01-22T11:32:54.078Z,0.29
2023-01-22T11:34:12.535Z,0.32
2023-01-22T11:35:22.792Z,0.33
2023-01-22T11:36:32.553Z,0.34
2023-01-22T11:37:48.124Z,0.36
2023-01-22T11:38:56.321Z,0.35
2023-01-22T11:40:15.271Z,0.36
2023-01-22T11:41:29.947Z,0.36
2023-01-22T11:42:46.976Z,0.38
2023-01-22T11:44:07.905Z,0.39
2023-01-22T11:45:27.489Z,0.39
2023-01-22T11:46:50.420Z,0.40
2023-01-22T11:48:15.898Z,0.41
2023-01-22T11:49:34.978Z,0.43
2023-01-22T11:50:43.264Z,0.44
2023-01-22T11:52:01.089Z,0.44
2023-01-22T11:53:30.385Z,0.45
2023-01-22T11:54:50.433Z,0.45
2023-01-22T11:56:07.558Z,0.44
2023-01-22T11:57:18.136Z,0.45
2023-01-22T11:58:30.900Z,0.46
2023-01-22T12:00:01.763Z,0.46
2023-01-22T12:01:19.212Z,0.47
2023-01-22T12:02:45.305Z,0.48
2023-01-22T12:04:04.269Z,0.48
2023-01-22T12:05:19.200Z,0.47
2023-01-22T12:06:48.620Z,0.45
2023-01-22T12:08:20.345Z,0.45
2023-01-22T12:09:28.800Z,0.45
2023-01-22T12:11:02.126Z,0.43
2023-01-22T12:12:22.373Z,0.40
2023-01-22T12:13:41.486Z,0.41
2023-01-22T12:14:51.883Z,0.41
2023-01-22T12:16:04.073Z,0.42
2023-01-22T12:17:25.282Z,0.42
2023-01-22T12:18:51.165Z,0.42
2023-01-22T12:20:21.891Z,0.44
2023-01-22T12:21:40.350Z,0.44
2023-01-22T12:22:48.865Z,0.45
2023-01-22T12:23:58.141Z,0.46
2023-01-22T12:25:11.564Z,0.48
2023-01-22T12:26:23.854Z,0.49
2023-01-22T12:27:32.941Z,0.50
2023-01-22T12:28:44.273Z,0.49
2023-01-22T12:29:53.642Z,0.48
2023-01-22T12:31:01.841Z,0.47
2023-01-22T12:32:09.223Z,0.48
2023-01-22T12:33:17.533Z,0.48
2023-01-22T12:34:25.361Z,0.47
2023-01-22T12:35:31.736Z,0.46
2023-01-22T12:36:35.453Z,0.46
2023-01-22T12:37:42.533Z,0.47
2023-01-22T12:38:54.041Z,0.46
2023-01-22T12:40:17.483Z,0.46
2023-01-22T12:41:34.077Z,0.45
2023-01-22T12:42:43.029Z,0.47
2023-01-22T12:43:51.206Z,0.48
2023-01-22T12:45:04.208Z,0.48
2023-01-22T12:46:18.309Z,0.49
2023-01-22T12:47:24.766Z,0.49
2023-01-22T12:48:36.631Z,0.50
2023-01-22T12:49:46.314Z,0.50
2023-01-22T12:50:51.381Z,0.51
2023-01-22T12:51:55.698Z,0.52
2023-01-22T12:53:00.235Z,0.52
2023-01-22T12:54:10.122Z,0.52
2023-01-22T12:55:29.054Z,0.52
2023-01-22T12:56:33.979Z,0.53
2023-01-22T12:57:39.605Z,0.53
2023-01-22T12:58:43.683Z,0.53
2023-01-22T12:59:47.296Z,0.53
2023-01-22T13:01:01.490Z,0.52
2023-01-22T13:02:06.004Z,0.53
2023-01-22T13:03:31.790Z,0.52
2023-01-22T13:04:36.722Z,0.54
2023-01-22T13:05:44.714Z,0.53
2023-01-22T13:06:47.766Z,0.53
2023-01-22T13:07:52.236Z,0.53
2023-01-22T13:08:55.167Z,0.52
2023-01-22T13:10:01.424Z,0.51
2023-01-22T13:11:07.349Z,0.51
2023-01-22T13:12:10.123Z,0.51
2023-01-22T13:13:23.755Z,0.49
2023-01-22T13:14:30.894Z,0.48
2023-01-22T13:15:37.246Z,0.47
2023-01-22T13:16:41.566Z,0.47
2023-01-22T13:17:44.010Z,0.46
2023-01-22T13:18:49.491Z,0.47
2023-01-22T13:19:54.283Z,0.48
2023-01-22T13:21:05.616Z,0.48
2023-01-22T13:22:14.857Z,0.48
2023-01-22T13:23:19.767Z,0.48
2023-01-22T13:24:24.342Z,0.47
2023-01-22T13:25:28.461Z,0.47
2023-01-22T13:26:33.902Z,0.48
2023-01-22T13:27:37.035Z,0.48
2023-01-22T13:28:42.046Z,0.49
2023-01-22T13:29:45.797Z,0.49
2023-01-22T13:30:57.677Z,0.51
2023-01-22T13:32:02.378Z,0.50
2023-01-22T13:33:05.957Z,0.51
2023-01-22T13:34:16.509Z,0.53
2023-01-22T13:35:20.758Z,0.52
2023-01-22T13:36:22.879Z,0.52
2023-01-22T13:37:28.308Z,0.54
2023-01-22T13:38:32.861Z,0.53
2023-01-22T13:39:34.746Z,0.54
2023-01-22T13:40:50.672Z,0.55
2023-01-22T13:41:56.213Z,0.56
2023-01-22T13:42:59.207Z,0.57
2023-01-22T13:44:03.347Z,0.57
2023-01-22T13:45:06.656Z,0.57
2023-01-22T13:46:14.921Z,0.57
2023-01-22T13:47:28.490Z,0.58
2023-01-22T13:48:31.837Z,0.58
2023-01-22T13:49:42.452Z,0.58
2023-01-22T13:50:53.496Z,0.58
2023-01-22T13:51:59.704Z,0.58
2023-01-22T13:53:03.710Z,0.58
2023-01-22T13:54:06.680Z,0.59
2023-01-22T13:55:17.022Z,0.58
2023-01-22T13:56:20.619Z,0.59
2023-01-22T13:57:23.871Z,0.59
2023-01-22T13:58:47.993Z,0.60
2023-01-22T13:59:56.071Z,0.59
2023-01-22T14:00:58.351Z,0.59
2023-01-22T14:02:01.566Z,0.62
2023-01-22T14:03:19.641Z,0.64
2023-01-22T14:04:37.355Z,0.62
2023-01-22T14:05:40.413Z,0.62
2023-01-22T14:06:44.879Z,0.60
2023-01-22T14:07:48.197Z,0.57
2023-01-22T14:08:51.678Z,0.56
2023-01-22T14:09:55.649Z,0.55
2023-01-22T14:10:59.035Z,0.55
2023-01-22T14:12:13.628Z,0.56
2023-01-22T14:13:16.808Z,0.56
2023-01-22T14:14:19.879Z,0.59
2023-01-22T14:15:23.190Z,0.60
2023-01-22T14:16:25.118Z,0.61
2023-01-22T14:17:30.003Z,0.61
2023-01-22T14:18:31.995Z,0.59
2023-01-22T14:19:35.060Z,0.57
2023-01-22T14:20:40.019Z,0.60
2023-01-22T14:21:41.985Z,0.57
2023-01-22T14:22:46.235Z,0.58
2023-01-22T14:23:48.645Z,0.60
2023-01-22T14:24:52.974Z,0.59
2023-01-22T14:25:56.193Z,0.59
2023-01-22T14:26:59.088Z,0.60
2023-01-22T14:28:01.195Z,0.59
2023-01-22T14:29:04.149Z,0.59
2023-01-22T14:30:08.874Z,0.60
2023-01-22T14:31:11.837Z,0.59
2023-01-22T14:32:14.830Z,0.59
2023-01-22T14:33:21.426Z,0.58